sensor_id;sensor_type;location;lat;lon;timestamp;pressure;altitude;pressure_sealevel;temperature
79053;BMP280;68451;49.510;6.026;2024-02-23T00:01:47;95891.44;;;4.47
79053;BMP280;68451;49.510;6.026;2024-02-23T00:03:50;95923.00;;;4.66
79053;BMP280;68451;49.510;6.026;2024-02-23T00:05:52;95898.47;;;4.35
79053;BMP280;68451;49.510;6.026;2024-02-23T00:07:54;95946.53;;;4.64
79053;BMP280;68451;49.510;6.026;2024-02-23T00:09:56;95944.16;;;4.63
79053;BMP280;68451;49.510;6.026;2024-02-23T00:11:57;95623.41;;;2.47
79053;BMP280;68451;49.510;6.026;2024-02-23T00:13:59;95933.03;;;4.45
79053;BMP280;68451;49.510;6.026;2024-02-23T00:16:01;95956.28;;;4.62
79053;BMP280;68451;49.510;6.026;2024-02-23T00:18:03;95938.97;;;4.46
79053;BMP280;68451;49.510;6.026;2024-02-23T00:20:08;95712.78;;;2.98
79053;BMP280;68451;49.510;6.026;2024-02-23T00:22:13;95907.88;;;4.13
79053;BMP280;68451;49.510;6.026;2024-02-23T00:24:15;95954.69;;;4.44
79053;BMP280;68451;49.510;6.026;2024-02-23T00:26:18;95956.19;;;4.40
79053;BMP280;68451;49.510;6.026;2024-02-23T00:28:20;95947.31;;;4.36
79053;BMP280;68451;49.510;6.026;2024-02-23T00:30:21;95980.53;;;4.44
79053;BMP280;68451;49.510;6.026;2024-02-23T00:32:23;95929.06;;;4.26
79053;BMP280;68451;49.510;6.026;2024-02-23T00:34:25;95984.78;;;4.50
79053;BMP280;68451;49.510;6.026;2024-02-23T00:36:27;95833.56;;;3.58
79053;BMP280;68451;49.510;6.026;2024-02-23T00:38:29;95976.25;;;4.50
79053;BMP280;68451;49.510;6.026;2024-02-23T00:40:31;95924.97;;;4.02
79053;BMP280;68451;49.510;6.026;2024-02-23T00:42:33;95989.19;;;4.38
79053;BMP280;68451;49.510;6.026;2024-02-23T00:44:35;95805.59;;;3.27
79053;BMP280;68451;49.510;6.026;2024-02-23T00:46:38;95970.00;;;4.34
79053;BMP280;68451;49.510;6.026;2024-02-23T00:48:40;95948.03;;;4.20
79053;BMP280;68451;49.510;6.026;2024-02-23T00:50:42;95848.25;;;3.57
79053;BMP280;68451;49.510;6.026;2024-02-23T00:52:44;95967.00;;;4.26
79053;BMP280;68451;49.510;6.026;2024-02-23T00:54:46;95946.19;;;4.04
79053;BMP280;68451;49.510;6.026;2024-02-23T00:56:48;95981.91;;;4.35
79053;BMP280;68451;49.510;6.026;2024-02-23T00:58:53;95991.44;;;4.35
79053;BMP280;68451;49.510;6.026;2024-02-23T01:00:55;95992.03;;;4.37
79053;BMP280;68451;49.510;6.026;2024-02-23T01:02:56;95979.41;;;4.40
79053;BMP280;68451;49.510;6.026;2024-02-23T01:05:01;95938.75;;;4.07
79053;BMP280;68451;49.510;6.026;2024-02-23T01:07:04;95950.34;;;4.05
79053;BMP280;68451;49.510;6.026;2024-02-23T01:09:06;95953.03;;;4.10
79053;BMP280;68451;49.510;6.026;2024-02-23T01:11:07;95988.78;;;4.30
79053;BMP280;68451;49.510;6.026;2024-02-23T01:13:09;95995.19;;;4.27
79053;BMP280;68451;49.510;6.026;2024-02-23T01:15:11;95961.72;;;3.92
79053;BMP280;68451;49.510;6.026;2024-02-23T01:17:13;95998.59;;;4.04
79053;BMP280;68451;49.510;6.026;2024-02-23T01:19:15;95977.31;;;3.86
79053;BMP280;68451;49.510;6.026;2024-02-23T01:21:17;95968.72;;;3.69
79053;BMP280;68451;49.510;6.026;2024-02-23T01:23:20;95993.34;;;3.99
79053;BMP280;68451;49.510;6.026;2024-02-23T01:25:22;96007.59;;;4.02
79053;BMP280;68451;49.510;6.026;2024-02-23T01:27:23;96019.94;;;4.00
79053;BMP280;68451;49.510;6.026;2024-02-23T01:29:26;96015.78;;;3.99
79053;BMP280;68451;49.510;6.026;2024-02-23T01:31:28;95991.00;;;3.86
79053;BMP280;68451;49.510;6.026;2024-02-23T01:33:30;96011.31;;;4.06
79053;BMP280;68451;49.510;6.026;2024-02-23T01:35:32;95980.78;;;3.80
79053;BMP280;68451;49.510;6.026;2024-02-23T01:37:34;95826.84;;;2.82
79053;BMP280;68451;49.510;6.026;2024-02-23T01:39:36;96001.44;;;3.91
79053;BMP280;68451;49.510;6.026;2024-02-23T01:41:37;96020.06;;;4.05
79053;BMP280;68451;49.510;6.026;2024-02-23T01:43:39;96004.03;;;3.91
79053;BMP280;68451;49.510;6.026;2024-02-23T01:45:41;96019.94;;;4.00
79053;BMP280;68451;49.510;6.026;2024-02-23T01:47:43;95998.28;;;3.89
79053;BMP280;68451;49.510;6.026;2024-02-23T01:49:45;96017.91;;;4.02
79053;BMP280;68451;49.510;6.026;2024-02-23T01:51:49;96010.63;;;4.11
79053;BMP280;68451;49.510;6.026;2024-02-23T01:53:51;95822.13;;;2.79
79053;BMP280;68451;49.510;6.026;2024-02-23T01:55:53;95955.81;;;3.69
79053;BMP280;68451;49.510;6.026;2024-02-23T01:57:56;95997.41;;;3.95
79053;BMP280;68451;49.510;6.026;2024-02-23T01:59:58;96027.44;;;4.13
79053;BMP280;68451;49.510;6.026;2024-02-23T02:02:00;96022.06;;;4.15
79053;BMP280;68451;49.510;6.026;2024-02-23T02:04:01;96018.00;;;4.07
79053;BMP280;68451;49.510;6.026;2024-02-23T02:06:09;96013.19;;;3.99
79053;BMP280;68451;49.510;6.026;2024-02-23T02:08:11;95996.59;;;3.95
79053;BMP280;68451;49.510;6.026;2024-02-23T02:10:13;95988.19;;;3.99
79053;BMP280;68451;49.510;6.026;2024-02-23T02:12:26;96020.81;;;4.17
79053;BMP280;68451;49.510;6.026;2024-02-23T02:14:28;95700.00;;;2.05
79053;BMP280;68451;49.510;6.026;2024-02-23T02:16:33;96013.75;;;4.13
79053;BMP280;68451;49.510;6.026;2024-02-23T02:18:34;96042.91;;;4.25
79053;BMP280;68451;49.510;6.026;2024-02-23T02:20:37;95993.34;;;3.99
79053;BMP280;68451;49.510;6.026;2024-02-23T02:22:40;95988.19;;;3.99
79053;BMP280;68451;49.510;6.026;2024-02-23T02:24:42;96025.25;;;4.33
79053;BMP280;68451;49.510;6.026;2024-02-23T02:26:45;96017.66;;;4.27
79053;BMP280;68451;49.510;6.026;2024-02-23T02:28:48;96005.53;;;4.16
79053;BMP280;68451;49.510;6.026;2024-02-23T02:30:50;96025.81;;;4.35
79053;BMP280;68451;49.510;6.026;2024-02-23T02:32:52;96020.88;;;4.34
79053;BMP280;68451;49.510;6.026;2024-02-23T02:34:54;96013.28;;;4.16
79053;BMP280;68451;49.510;6.026;2024-02-23T02:36:56;96032.81;;;4.23
79053;BMP280;68451;49.510;6.026;2024-02-23T02:38:58;95849.69;;;3.02
79053;BMP280;68451;49.510;6.026;2024-02-23T02:41:00;96039.09;;;4.16
79053;BMP280;68451;49.510;6.026;2024-02-23T02:43:02;95875.13;;;3.10
79053;BMP280;68451;49.510;6.026;2024-02-23T02:45:04;96010.41;;;4.00
79053;BMP280;68451;49.510;6.026;2024-02-23T02:47:06;96044.69;;;4.24
79053;BMP280;68451;49.510;6.026;2024-02-23T02:49:08;96048.75;;;4.20
79053;BMP280;68451;49.510;6.026;2024-02-23T02:51:10;96057.06;;;4.22
79053;BMP280;68451;49.510;6.026;2024-02-23T02:53:12;96062.00;;;4.24
79053;BMP280;68451;49.510;6.026;2024-02-23T02:55:14;96056.59;;;4.25
79053;BMP280;68451;49.510;6.026;2024-02-23T02:57:15;95906.50;;;3.30
79053;BMP280;68451;49.510;6.026;2024-02-23T02:59:17;96034.06;;;4.09
79053;BMP280;68451;49.510;6.026;2024-02-23T03:01:20;96054.94;;;4.19
79053;BMP280;68451;49.510;6.026;2024-02-23T03:03:21;96049.09;;;4.24
79053;BMP280;68451;49.510;6.026;2024-02-23T03:05:24;96005.72;;;3.86
79053;BMP280;68451;49.510;6.026;2024-02-23T03:07:26;96004.69;;;3.87
79053;BMP280;68451;49.510;6.026;2024-02-23T03:09:28;96038.88;;;4.17
79053;BMP280;68451;49.510;6.026;2024-02-23T03:11:30;96052.78;;;4.16
79053;BMP280;68451;49.510;6.026;2024-02-23T03:13:32;96005.50;;;3.87
79053;BMP280;68451;49.510;6.026;2024-02-23T03:15:34;96054.59;;;4.16
79053;BMP280;68451;49.510;6.026;2024-02-23T03:17:35;96048.56;;;4.10
79053;BMP280;68451;49.510;6.026;2024-02-23T03:19:38;95708.81;;;1.86
79053;BMP280;68451;49.510;6.026;2024-02-23T03:21:40;96010.22;;;3.67
79053;BMP280;68451;49.510;6.026;2024-02-23T03:23:42;95991.28;;;3.62
79053;BMP280;68451;49.510;6.026;2024-02-23T03:25:43;96048.88;;;4.02
79053;BMP280;68451;49.510;6.026;2024-02-23T03:27:45;96014.81;;;3.77
79053;BMP280;68451;49.510;6.026;2024-02-23T03:29:47;96027.81;;;3.93
79053;BMP280;68451;49.510;6.026;2024-02-23T03:31:49;96059.56;;;4.05
79053;BMP280;68451;49.510;6.026;2024-02-23T03:33:51;95992.81;;;3.63
79053;BMP280;68451;49.510;6.026;2024-02-23T03:35:53;95983.84;;;3.65
79053;BMP280;68451;49.510;6.026;2024-02-23T03:37:54;96038.25;;;4.10
79053;BMP280;68451;49.510;6.026;2024-02-23T03:39:56;96019.03;;;3.94
79053;BMP280;68451;49.510;6.026;2024-02-23T03:41:58;96010.88;;;3.86
79053;BMP280;68451;49.510;6.026;2024-02-23T03:44:00;96022.88;;;3.92
79053;BMP280;68451;49.510;6.026;2024-02-23T03:46:02;96035.22;;;3.90
79053;BMP280;68451;49.510;6.026;2024-02-23T03:48:04;96039.16;;;3.92
79053;BMP280;68451;49.510;6.026;2024-02-23T03:50:06;96022.88;;;3.80
79053;BMP280;68451;49.510;6.026;2024-02-23T03:52:09;96044.31;;;3.92
79053;BMP280;68451;49.510;6.026;2024-02-23T03:54:11;96043.06;;;3.95
79053;BMP280;68451;49.510;6.026;2024-02-23T03:56:12;96016.16;;;3.68
79053;BMP280;68451;49.510;6.026;2024-02-23T03:58:14;96032.75;;;3.83
79053;BMP280;68451;49.510;6.026;2024-02-23T04:00:17;95997.44;;;3.60
79053;BMP280;68451;49.510;6.026;2024-02-23T04:02:19;96033.78;;;3.82
79053;BMP280;68451;49.510;6.026;2024-02-23T04:04:21;96039.03;;;3.87
79053;BMP280;68451;49.510;6.026;2024-02-23T04:06:23;95979.59;;;3.47
79053;BMP280;68451;49.510;6.026;2024-02-23T04:08:24;96033.97;;;3.81
79053;BMP280;68451;49.510;6.026;2024-02-23T04:10:26;96016.28;;;3.73
79053;BMP280;68451;49.510;6.026;2024-02-23T04:12:28;96011.22;;;3.66
79053;BMP280;68451;49.510;6.026;2024-02-23T04:14:30;96010.53;;;3.71
79053;BMP280;68451;49.510;6.026;2024-02-23T04:16:32;96032.41;;;3.80
79053;BMP280;68451;49.510;6.026;2024-02-23T04:18:34;95846.66;;;2.58
79053;BMP280;68451;49.510;6.026;2024-02-23T04:20:36;96031.75;;;3.73
79053;BMP280;68451;49.510;6.026;2024-02-23T04:22:38;96018.28;;;3.71
79053;BMP280;68451;49.510;6.026;2024-02-23T04:24:40;96021.66;;;3.71
79053;BMP280;68451;49.510;6.026;2024-02-23T04:26:42;96015.47;;;3.72
79053;BMP280;68451;49.510;6.026;2024-02-23T04:28:43;96008.53;;;3.73
79053;BMP280;68451;49.510;6.026;2024-02-23T04:30:45;96016.84;;;3.75
79053;BMP280;68451;49.510;6.026;2024-02-23T04:32:47;96003.81;;;3.70
79053;BMP280;68451;49.510;6.026;2024-02-23T04:34:49;95769.69;;;2.15
79053;BMP280;68451;49.510;6.026;2024-02-23T04:36:51;95992.50;;;3.59
79053;BMP280;68451;49.510;6.026;2024-02-23T04:38:53;95989.47;;;3.50
79053;BMP280;68451;49.510;6.026;2024-02-23T04:40:55;95962.31;;;3.36
79053;BMP280;68451;49.510;6.026;2024-02-23T04:42:58;95980.16;;;3.49
79053;BMP280;68451;49.510;6.026;2024-02-23T04:44:59;95993.16;;;3.66
79053;BMP280;68451;49.510;6.026;2024-02-23T04:47:02;95973.00;;;3.51
79053;BMP280;68451;49.510;6.026;2024-02-23T04:49:04;95784.81;;;2.23
79053;BMP280;68451;49.510;6.026;2024-02-23T04:51:06;95971.63;;;3.37
79053;BMP280;68451;49.510;6.026;2024-02-23T04:53:11;96005.97;;;3.61
79053;BMP280;68451;49.510;6.026;2024-02-23T04:55:13;95999.00;;;3.62
79053;BMP280;68451;49.510;6.026;2024-02-23T04:57:15;96003.13;;;3.63
79053;BMP280;68451;49.510;6.026;2024-02-23T04:59:17;95909.84;;;2.96
79053;BMP280;68451;49.510;6.026;2024-02-23T05:01:18;95831.63;;;2.44
79053;BMP280;68451;49.510;6.026;2024-02-23T05:03:21;95930.72;;;3.06
79053;BMP280;68451;49.510;6.026;2024-02-23T05:05:23;95986.22;;;3.43
79053;BMP280;68451;49.510;6.026;2024-02-23T05:07:25;95992.72;;;3.46
79053;BMP280;68451;49.510;6.026;2024-02-23T05:09:27;95994.28;;;3.47
79053;BMP280;68451;49.510;6.026;2024-02-23T05:11:28;95984.66;;;3.42
79053;BMP280;68451;49.510;6.026;2024-02-23T05:13:30;95850.69;;;2.54
79053;BMP280;68451;49.510;6.026;2024-02-23T05:15:32;95995.97;;;3.41
79053;BMP280;68451;49.510;6.026;2024-02-23T05:17:34;95932.72;;;3.04
79053;BMP280;68451;49.510;6.026;2024-02-23T05:19:36;95952.13;;;3.18
79053;BMP280;68451;49.510;6.026;2024-02-23T05:21:38;95983.41;;;3.33
79053;BMP280;68451;49.510;6.026;2024-02-23T05:23:40;95955.81;;;3.22
79053;BMP280;68451;49.510;6.026;2024-02-23T05:25:41;95971.53;;;3.32
79053;BMP280;68451;49.510;6.026;2024-02-23T05:27:43;95775.81;;;2.03
79053;BMP280;68451;49.510;6.026;2024-02-23T05:29:45;95938.22;;;3.07
79053;BMP280;68451;49.510;6.026;2024-02-23T05:31:52;95948.63;;;3.12
79053;BMP280;68451;49.510;6.026;2024-02-23T05:33:54;95943.59;;;3.06
79053;BMP280;68451;49.510;6.026;2024-02-23T05:35:56;95936.66;;;3.06
79053;BMP280;68451;49.510;6.026;2024-02-23T05:37:58;95954.38;;;3.14
79053;BMP280;68451;49.510;6.026;2024-02-23T05:40:00;95929.47;;;3.08
79053;BMP280;68451;49.510;6.026;2024-02-23T05:42:06;95954.59;;;3.25
79053;BMP280;68451;49.510;6.026;2024-02-23T05:44:08;95943.59;;;3.17
79053;BMP280;68451;49.510;6.026;2024-02-23T05:46:10;95923.31;;;3.09
79053;BMP280;68451;49.510;6.026;2024-02-23T05:48:11;95957.72;;;3.27
79053;BMP280;68451;49.510;6.026;2024-02-23T05:50:13;95958.41;;;3.34
79053;BMP280;68451;49.510;6.026;2024-02-23T05:52:15;95962.78;;;3.33
79053;BMP280;68451;49.510;6.026;2024-02-23T05:54:17;95952.00;;;3.36
79053;BMP280;68451;49.510;6.026;2024-02-23T05:56:19;95934.88;;;3.30
79053;BMP280;68451;49.510;6.026;2024-02-23T05:58:21;95929.72;;;3.30
79053;BMP280;68451;49.510;6.026;2024-02-23T06:00:22;95929.94;;;3.29
79053;BMP280;68451;49.510;6.026;2024-02-23T06:02:24;95948.44;;;3.37
79053;BMP280;68451;49.510;6.026;2024-02-23T06:04:26;95954.03;;;3.34
79053;BMP280;68451;49.510;6.026;2024-02-23T06:06:29;95896.41;;;3.05
79053;BMP280;68451;49.510;6.026;2024-02-23T06:08:31;95802.53;;;2.55
79053;BMP280;68451;49.510;6.026;2024-02-23T06:10:33;95807.47;;;2.56
79053;BMP280;68451;49.510;6.026;2024-02-23T06:12:35;95922.53;;;3.21
79053;BMP280;68451;49.510;6.026;2024-02-23T06:14:37;95930.81;;;3.23
79053;BMP280;68451;49.510;6.026;2024-02-23T06:16:39;95942.81;;;3.29
79053;BMP280;68451;49.510;6.026;2024-02-23T06:18:42;95782.72;;;2.32
79053;BMP280;68451;49.510;6.026;2024-02-23T06:20:43;95804.31;;;2.43
79053;BMP280;68451;49.510;6.026;2024-02-23T06:22:45;95940.69;;;3.37
79053;BMP280;68451;49.510;6.026;2024-02-23T06:24:47;95936.00;;;3.34
79053;BMP280;68451;49.510;6.026;2024-02-23T06:26:49;95758.19;;;2.18
79053;BMP280;68451;49.510;6.026;2024-02-23T06:28:52;95945.28;;;3.35
79053;BMP280;68451;49.510;6.026;2024-02-23T06:30:55;95898.41;;;3.27
79053;BMP280;68451;49.510;6.026;2024-02-23T06:32:56;95793.59;;;2.57
79053;BMP280;68451;49.510;6.026;2024-02-23T06:34:58;95931.72;;;3.40
79053;BMP280;68451;49.510;6.026;2024-02-23T06:37:01;95924.66;;;3.35
79053;BMP280;68451;49.510;6.026;2024-02-23T06:39:04;95839.72;;;2.82
79053;BMP280;68451;49.510;6.026;2024-02-23T06:41:06;95934.50;;;3.50
79053;BMP280;68451;49.510;6.026;2024-02-23T06:43:10;95913.13;;;3.38
79053;BMP280;68451;49.510;6.026;2024-02-23T06:45:12;95935.63;;;3.54
79053;BMP280;68451;49.510;6.026;2024-02-23T06:47:13;95940.91;;;3.59
79053;BMP280;68451;49.510;6.026;2024-02-23T06:49:16;95909.50;;;3.50
79053;BMP280;68451;49.510;6.026;2024-02-23T06:51:17;95884.97;;;3.36
79053;BMP280;68451;49.510;6.026;2024-02-23T06:53:22;95761.31;;;2.55
79053;BMP280;68451;49.510;6.026;2024-02-23T06:55:23;95945.50;;;3.69
79053;BMP280;68451;49.510;6.026;2024-02-23T06:57:25;95910.63;;;3.54
79053;BMP280;68451;49.510;6.026;2024-02-23T06:59:27;95914.19;;;3.65
79053;BMP280;68451;49.510;6.026;2024-02-23T07:01:29;95932.00;;;3.78
79053;BMP280;68451;49.510;6.026;2024-02-23T07:03:31;95935.91;;;3.81
79053;BMP280;68451;49.510;6.026;2024-02-23T07:05:33;95913.63;;;3.75
79053;BMP280;68451;49.510;6.026;2024-02-23T07:07:37;95894.78;;;3.63
79053;BMP280;68451;49.510;6.026;2024-02-23T07:09:41;95924.00;;;3.91
79053;BMP280;68451;49.510;6.026;2024-02-23T07:11:43;95930.75;;;3.92
79053;BMP280;68451;49.510;6.026;2024-02-23T07:13:47;95933.97;;;3.99
79053;BMP280;68451;49.510;6.026;2024-02-23T07:15:49;95940.56;;;4.07
79053;BMP280;68451;49.510;6.026;2024-02-23T07:17:50;95932.59;;;4.09
79053;BMP280;68451;49.510;6.026;2024-02-23T07:19:53;95907.94;;;3.89
79053;BMP280;68451;49.510;6.026;2024-02-23T07:21:55;95865.88;;;3.60
79053;BMP280;68451;49.510;6.026;2024-02-23T07:23:57;95952.56;;;4.13
79053;BMP280;68451;49.510;6.026;2024-02-23T07:25:59;95950.53;;;4.15
79053;BMP280;68451;49.510;6.026;2024-02-23T07:28:01;95918.81;;;4.03
79053;BMP280;68451;49.510;6.026;2024-02-23T07:30:03;95941.50;;;4.29
79053;BMP280;68451;49.510;6.026;2024-02-23T07:32:06;95919.41;;;4.22
79053;BMP280;68451;49.510;6.026;2024-02-23T07:34:09;95945.00;;;4.51
79053;BMP280;68451;49.510;6.026;2024-02-23T07:36:17;95906.81;;;4.54
79053;BMP280;68451;49.510;6.026;2024-02-23T07:38:19;95913.06;;;4.74
79053;BMP280;68451;49.510;6.026;2024-02-23T07:40:21;95910.88;;;4.83
79053;BMP280;68451;49.510;6.026;2024-02-23T07:42:23;95943.09;;;5.25
79053;BMP280;68451;49.510;6.026;2024-02-23T07:44:25;95940.31;;;5.49
79053;BMP280;68451;49.510;6.026;2024-02-23T07:46:28;95913.81;;;5.41
79053;BMP280;68451;49.510;6.026;2024-02-23T07:48:30;95971.16;;;5.72
79053;BMP280;68451;49.510;6.026;2024-02-23T07:50:32;95931.41;;;5.39
79053;BMP280;68451;49.510;6.026;2024-02-23T07:52:34;95937.28;;;5.35
79053;BMP280;68451;49.510;6.026;2024-02-23T07:54:35;95977.06;;;5.51
79053;BMP280;68451;49.510;6.026;2024-02-23T07:56:37;95955.06;;;5.31
79053;BMP280;68451;49.510;6.026;2024-02-23T07:58:39;95979.59;;;5.46
79053;BMP280;68451;49.510;6.026;2024-02-23T08:00:41;95981.72;;;5.49
79053;BMP280;68451;49.510;6.026;2024-02-23T08:02:43;95979.59;;;5.46
79053;BMP280;68451;49.510;6.026;2024-02-23T08:04:44;95952.88;;;5.40
79053;BMP280;68451;49.510;6.026;2024-02-23T08:06:49;95956.53;;;5.61
79053;BMP280;68451;49.510;6.026;2024-02-23T08:08:50;95975.59;;;5.76
79053;BMP280;68451;49.510;6.026;2024-02-23T08:10:52;95952.91;;;5.62
79053;BMP280;68451;49.510;6.026;2024-02-23T08:12:54;95986.16;;;5.70
79053;BMP280;68451;49.510;6.026;2024-02-23T08:14:56;95995.16;;;5.84
79053;BMP280;68451;49.510;6.026;2024-02-23T08:16:58;95963.16;;;5.73
79053;BMP280;68451;49.510;6.026;2024-02-23T08:19:00;95962.91;;;5.53
79053;BMP280;68451;49.510;6.026;2024-02-23T08:21:02;95968.97;;;5.64
79053;BMP280;68451;49.510;6.026;2024-02-23T08:23:04;95964.50;;;5.59
79053;BMP280;68451;49.510;6.026;2024-02-23T08:25:06;95984.03;;;6.27
79053;BMP280;68451;49.510;6.026;2024-02-23T08:27:10;95978.84;;;6.75
79053;BMP280;68451;49.510;6.026;2024-02-23T08:29:11;95971.41;;;6.84
79053;BMP280;68451;49.510;6.026;2024-02-23T08:31:13;95983.91;;;6.60
79053;BMP280;68451;49.510;6.026;2024-02-23T08:33:15;95963.03;;;6.23
79053;BMP280;68451;49.510;6.026;2024-02-23T08:35:17;95981.16;;;6.23
79053;BMP280;68451;49.510;6.026;2024-02-23T08:37:19;95927.97;;;7.01
79053;BMP280;68451;49.510;6.026;2024-02-23T08:39:20;95977.53;;;8.26
79053;BMP280;68451;49.510;6.026;2024-02-23T08:41:23;95967.53;;;8.75
79053;BMP280;68451;49.510;6.026;2024-02-23T08:43:25;95947.19;;;8.62
79053;BMP280;68451;49.510;6.026;2024-02-23T08:45:27;95978.38;;;8.46
79053;BMP280;68451;49.510;6.026;2024-02-23T08:47:29;95975.53;;;8.48
79053;BMP280;68451;49.510;6.026;2024-02-23T08:49:34;95902.28;;;7.42
79053;BMP280;68451;49.510;6.026;2024-02-23T08:51:36;95954.16;;;7.79
79053;BMP280;68451;49.510;6.026;2024-02-23T08:53:38;95975.88;;;8.09
79053;BMP280;68451;49.510;6.026;2024-02-23T08:55:40;95947.53;;;8.08
79053;BMP280;68451;49.510;6.026;2024-02-23T08:57:42;95976.56;;;8.42
79053;BMP280;68451;49.510;6.026;2024-02-23T08:59:43;95883.28;;;7.83
79053;BMP280;68451;49.510;6.026;2024-02-23T09:01:45;95980.00;;;8.05
79053;BMP280;68451;49.510;6.026;2024-02-23T09:03:48;95980.69;;;7.86
79053;BMP280;68451;49.510;6.026;2024-02-23T09:05:50;95976.66;;;7.58
79053;BMP280;68451;49.510;6.026;2024-02-23T09:07:52;95968.34;;;7.24
79053;BMP280;68451;49.510;6.026;2024-02-23T09:09:55;95990.50;;;7.32
79053;BMP280;68451;49.510;6.026;2024-02-23T09:11:57;95983.09;;;7.13
79053;BMP280;68451;49.510;6.026;2024-02-23T09:14:00;95850.75;;;6.13
79053;BMP280;68451;49.510;6.026;2024-02-23T09:16:02;95934.09;;;6.58
79053;BMP280;68451;49.510;6.026;2024-02-23T09:18:04;95980.59;;;6.70
79053;BMP280;68451;49.510;6.026;2024-02-23T09:20:07;95963.84;;;6.51
79053;BMP280;68451;49.510;6.026;2024-02-23T09:22:09;95985.50;;;6.66
79053;BMP280;68451;49.510;6.026;2024-02-23T09:24:11;95983.94;;;6.65
79053;BMP280;68451;49.510;6.026;2024-02-23T09:26:13;95944.22;;;6.33
79053;BMP280;68451;49.510;6.026;2024-02-23T09:28:15;95994.56;;;6.64
79053;BMP280;68451;49.510;6.026;2024-02-23T09:30:17;95873.00;;;5.87
79053;BMP280;68451;49.510;6.026;2024-02-23T09:32:18;95991.25;;;6.68
79053;BMP280;68451;49.510;6.026;2024-02-23T09:34:20;95965.94;;;6.54
79053;BMP280;68451;49.510;6.026;2024-02-23T09:36:22;95986.34;;;6.72
79053;BMP280;68451;49.510;6.026;2024-02-23T09:38:24;95991.81;;;6.75
79053;BMP280;68451;49.510;6.026;2024-02-23T09:40:26;95976.13;;;6.60
79053;BMP280;68451;49.510;6.026;2024-02-23T09:42:28;95993.28;;;6.66
79053;BMP280;68451;49.510;6.026;2024-02-23T09:44:34;95979.00;;;6.64
79053;BMP280;68451;49.510;6.026;2024-02-23T09:46:37;95927.88;;;6.33
79053;BMP280;68451;49.510;6.026;2024-02-23T09:48:39;95952.97;;;6.54
79053;BMP280;68451;49.510;6.026;2024-02-23T09:50:44;95986.22;;;6.89
79053;BMP280;68451;49.510;6.026;2024-02-23T09:52:48;95981.00;;;6.84
79053;BMP280;68451;49.510;6.026;2024-02-23T09:54:51;95974.38;;;6.98
79053;BMP280;68451;49.510;6.026;2024-02-23T09:56:54;95953.84;;;6.91
79053;BMP280;68451;49.510;6.026;2024-02-23T09:58:58;95979.63;;;7.03
79053;BMP280;68451;49.510;6.026;2024-02-23T10:01:02;95980.84;;;6.95
79053;BMP280;68451;49.510;6.026;2024-02-23T10:03:05;95973.31;;;6.94
79053;BMP280;68451;49.510;6.026;2024-02-23T10:05:08;95919.34;;;6.59
79053;BMP280;68451;49.510;6.026;2024-02-23T10:07:15;95845.22;;;6.04
79053;BMP280;68451;49.510;6.026;2024-02-23T10:09:20;95989.19;;;7.02
79053;BMP280;68451;49.510;6.026;2024-02-23T10:11:24;95963.53;;;6.74
79053;BMP280;68451;49.510;6.026;2024-02-23T10:13:26;95981.50;;;6.81
79053;BMP280;68451;49.510;6.026;2024-02-23T10:15:31;95986.09;;;6.73
79053;BMP280;68451;49.510;6.026;2024-02-23T10:17:33;95899.38;;;6.06
79053;BMP280;68451;49.510;6.026;2024-02-23T10:19:37;95985.88;;;6.53
79053;BMP280;68451;49.510;6.026;2024-02-23T10:21:39;96008.00;;;6.61
79053;BMP280;68451;49.510;6.026;2024-02-23T10:23:43;95818.50;;;5.33
79053;BMP280;68451;49.510;6.026;2024-02-23T10:25:46;95876.06;;;5.62
79053;BMP280;68451;49.510;6.026;2024-02-23T10:27:47;96014.63;;;6.52
79053;BMP280;68451;49.510;6.026;2024-02-23T10:29:50;96013.16;;;6.56
79053;BMP280;68451;49.510;6.026;2024-02-23T10:31:56;95992.69;;;6.59
79053;BMP280;68451;49.510;6.026;2024-02-23T10:33:59;95976.75;;;6.72
79053;BMP280;68451;49.510;6.026;2024-02-23T10:36:04;95997.59;;;7.09
79053;BMP280;68451;49.510;6.026;2024-02-23T10:38:08;96005.56;;;7.35
79053;BMP280;68451;49.510;6.026;2024-02-23T10:40:12;96026.47;;;7.55
79053;BMP280;68451;49.510;6.026;2024-02-23T10:42:16;96001.31;;;7.60
79053;BMP280;68451;49.510;6.026;2024-02-23T10:44:21;96008.28;;;7.50
79053;BMP280;68451;49.510;6.026;2024-02-23T10:46:23;95967.06;;;7.22
79053;BMP280;68451;49.510;6.026;2024-02-23T10:48:27;95981.59;;;7.23
79053;BMP280;68451;49.510;6.026;2024-02-23T10:50:29;95853.72;;;6.26
79053;BMP280;68451;49.510;6.026;2024-02-23T10:52:35;96004.69;;;7.24
79053;BMP280;68451;49.510;6.026;2024-02-23T10:54:38;96004.41;;;7.20
79053;BMP280;68451;49.510;6.026;2024-02-23T10:56:40;95969.41;;;6.91
79053;BMP280;68451;49.510;6.026;2024-02-23T10:58:43;95989.44;;;7.01
79053;BMP280;68451;49.510;6.026;2024-02-23T11:00:45;96022.53;;;7.15
79053;BMP280;68451;49.510;6.026;2024-02-23T11:02:51;96025.38;;;7.14
79053;BMP280;68451;49.510;6.026;2024-02-23T11:04:55;95883.22;;;6.20
79053;BMP280;68451;49.510;6.026;2024-02-23T11:06:58;95994.28;;;6.92
79053;BMP280;68451;49.510;6.026;2024-02-23T11:09:07;95996.81;;;6.82
79053;BMP280;68451;49.510;6.026;2024-02-23T11:11:11;96017.00;;;7.07
79053;BMP280;68451;49.510;6.026;2024-02-23T11:13:15;95997.22;;;7.01
79053;BMP280;68451;49.510;6.026;2024-02-23T11:15:27;95988.41;;;7.02
79053;BMP280;68451;49.510;6.026;2024-02-23T11:17:31;96011.72;;;7.29
79053;BMP280;68451;49.510;6.026;2024-02-23T11:19:39;95995.09;;;7.25
79053;BMP280;68451;49.510;6.026;2024-02-23T11:21:41;96008.50;;;7.48
79053;BMP280;68451;49.510;6.026;2024-02-23T11:23:49;96006.25;;;7.57
79053;BMP280;68451;49.510;6.026;2024-02-23T11:28:05;95981.81;;;7.53
79053;BMP280;68451;49.510;6.026;2024-02-23T11:30:08;95837.94;;;6.60
79053;BMP280;68451;49.510;6.026;2024-02-23T11:32:13;95958.97;;;7.50
79053;BMP280;68451;49.510;6.026;2024-02-23T11:34:21;95855.50;;;6.85
79053;BMP280;68451;49.510;6.026;2024-02-23T11:36:28;96008.78;;;7.89
79053;BMP280;68451;49.510;6.026;2024-02-23T11:38:32;95768.44;;;6.20
79053;BMP280;68451;49.510;6.026;2024-02-23T11:40:34;95963.31;;;7.44
79053;BMP280;68451;49.510;6.026;2024-02-23T11:42:38;95949.53;;;7.39
79053;BMP280;68451;49.510;6.026;2024-02-23T11:44:44;95979.69;;;7.45
79053;BMP280;68451;49.510;6.026;2024-02-23T11:46:46;95973.88;;;7.33
79053;BMP280;68451;49.510;6.026;2024-02-23T11:48:48;95980.72;;;7.44
79053;BMP280;68451;49.510;6.026;2024-02-23T11:50:57;96007.31;;;7.61
79053;BMP280;68451;49.510;6.026;2024-02-23T11:52:59;96001.66;;;7.74
79053;BMP280;68451;49.510;6.026;2024-02-23T11:55:01;95979.59;;;7.72
79053;BMP280;68451;49.510;6.026;2024-02-23T11:57:04;95796.91;;;6.47
79053;BMP280;68451;49.510;6.026;2024-02-23T11:59:06;95977.41;;;7.53